createdAt,value
2018-09-21T00:04:43.338Z,87.87
2018-09-21T00:09:46.550Z,88.47
2018-09-21T00:14:49.782Z,87.51
2018-09-21T00:19:53.136Z,88.50
2018-09-21T00:24:56.412Z,88.14
2018-09-21T00:29:59.970Z,88.43
2018-09-21T00:35:03.217Z,88.87
2018-09-21T00:40:06.439Z,88.49
2018-09-21T00:45:09.740Z,88.69
2018-09-21T00:50:12.908Z,88.27
2018-09-21T00:55:16.112Z,88.43
2018-09-21T01:00:19.355Z,89.27
2018-09-21T01:05:22.846Z,89.64
2018-09-21T01:10:26.042Z,89.95
2018-09-21T01:15:29.323Z,90.83
2018-09-21T01:20:32.987Z,91.44
2018-09-21T01:25:36.869Z,90.86
2018-09-21T01:30:41.541Z,91.87
2018-09-21T01:35:49.888Z,91.94
2018-09-21T01:40:53.380Z,92.09
2018-09-21T01:45:56.590Z,91.73
2018-09-21T01:50:59.745Z,90.70
2018-09-21T01:56:02.984Z,90.97
2018-09-21T02:01:06.335Z,91.32
2018-09-21T02:06:09.496Z,91.00
2018-09-21T02:11:12.701Z,90.16
2018-09-21T02:16:16.479Z,89.78
2018-09-21T02:21:19.732Z,88.86
2018-09-21T02:26:23.158Z,88.60
2018-09-21T02:31:26.387Z,88.19
2018-09-21T02:36:29.560Z,89.10
2018-09-21T02:41:33.637Z,89.27
2018-09-21T02:46:36.747Z,89.51
2018-09-21T02:51:39.930Z,89.48
2018-09-21T02:56:43.466Z,88.77
2018-09-21T03:01:46.794Z,87.71
2018-09-21T03:06:50.177Z,87.62
2018-09-21T03:11:53.498Z,87.48
2018-09-21T03:16:56.772Z,87.19
2018-09-21T03:22:00.051Z,86.37
2018-09-21T03:27:03.270Z,85.12
2018-09-21T03:32:07.730Z,85.03
2018-09-21T03:37:10.937Z,84.62
2018-09-21T03:42:14.105Z,84.91
2018-09-21T03:47:17.254Z,85.50
2018-09-21T03:52:20.541Z,84.61
2018-09-21T03:57:23.891Z,84.55
2018-09-21T04:02:27.125Z,84.47
2018-09-21T04:07:30.346Z,84.24
2018-09-21T04:12:35.702Z,85.49
2018-09-21T04:17:39.120Z,85.81
2018-09-21T04:22:46.343Z,85.52
2018-09-21T04:27:50.507Z,84.06
2018-09-21T04:32:53.692Z,84.22
2018-09-21T04:37:58.761Z,83.75
2018-09-21T04:43:02.118Z,84.30
2018-09-21T04:48:05.647Z,84.49
2018-09-21T04:53:08.895Z,85.10
2018-09-21T04:58:14.856Z,85.46
2018-09-21T05:03:18.900Z,86.07
2018-09-21T05:08:22.127Z,85.76
2018-09-21T05:13:25.335Z,83.21
2018-09-21T05:18:28.590Z,80.45
2018-09-21T05:23:31.849Z,77.74
2018-09-21T05:28:34.999Z,75.69
2018-09-21T05:33:38.213Z,72.90
2018-09-21T05:38:41.406Z,70.01
2018-09-21T05:43:44.521Z,68.06
2018-09-21T05:48:47.786Z,66.29
2018-09-21T05:53:51.867Z,64.30
2018-09-21T05:58:55.299Z,63.35
2018-09-21T06:03:58.522Z,61.97
2018-09-21T06:09:01.864Z,62.22
2018-09-21T06:14:05.506Z,60.32
2018-09-21T06:19:08.613Z,59.61
2018-09-21T06:24:11.940Z,58.37
2018-09-21T06:29:15.119Z,56.89
2018-09-21T06:34:18.405Z,55.49
2018-09-21T06:39:22.251Z,55.39
2018-09-21T06:44:25.919Z,54.93
2018-09-21T06:49:30.128Z,53.27
2018-09-21T06:54:33.336Z,53.24
2018-09-21T06:59:36.752Z,51.74
2018-09-21T07:04:40.174Z,51.29
2018-09-21T07:09:43.381Z,51.72
2018-09-21T07:14:46.782Z,52.47
2018-09-21T07:19:50.099Z,53.45
2018-09-21T07:24:54.415Z,53.31
2018-09-21T07:29:57.726Z,53.08
2018-09-21T07:35:00.945Z,54.90
2018-09-21T07:40:05.157Z,54.03
2018-09-21T07:45:09.683Z,52.22
2018-09-21T07:50:13.069Z,52.55
2018-09-21T07:55:16.265Z,51.45
2018-09-21T08:00:19.457Z,51.17
2018-09-21T08:05:22.727Z,51.35
2018-09-21T08:10:25.888Z,49.88
2018-09-21T08:15:29.227Z,49.25
2018-09-21T08:20:32.382Z,49.62
2018-09-21T08:25:35.696Z,49.50
2018-09-21T08:30:39.809Z,50.35
2018-09-21T08:35:43.152Z,49.39
2018-09-21T08:40:46.408Z,48.52
2018-09-21T08:45:49.753Z,47.53
2018-09-21T08:50:52.944Z,46.30
2018-09-21T08:55:56.238Z,46.59
2018-09-21T09:00:59.431Z,46.11
2018-09-21T09:06:02.571Z,44.98
2018-09-21T09:11:05.997Z,44.48
2018-09-21T09:16:10.498Z,41.72
2018-09-21T09:21:13.917Z,41.88
2018-09-21T09:26:17.085Z,40.24
2018-09-21T09:31:20.263Z,40.05
2018-09-21T09:36:23.448Z,35.01
2018-09-21T09:41:26.646Z,34.31
2018-09-21T09:46:29.838Z,34.78
2018-09-21T09:51:33.061Z,31.90
2018-09-21T09:56:36.526Z,32.00
2018-09-21T10:01:40.398Z,32.24
2018-09-21T10:06:43.833Z,31.48
2018-09-21T10:11:47.623Z,31.17
2018-09-21T10:16:50.845Z,29.25
2018-09-21T10:21:54.100Z,31.70
2018-09-21T10:26:57.723Z,31.49
2018-09-21T10:32:00.875Z,31.83
2018-09-21T10:37:04.189Z,30.59
2018-09-21T10:42:07.752Z,31.80
2018-09-21T10:47:11.104Z,31.78
2018-09-21T10:52:14.316Z,33.45
2018-09-21T10:57:17.877Z,33.35
2018-09-21T11:02:21.079Z,31.60
2018-09-21T11:07:24.495Z,30.92
2018-09-21T11:12:27.770Z,29.84
2018-09-21T11:17:30.886Z,30.32
2018-09-21T11:22:34.067Z,30.47
2018-09-21T11:27:37.320Z,29.88
2018-09-21T11:32:40.515Z,29.17
2018-09-21T11:37:46.683Z,30.82
2018-09-21T11:42:49.904Z,30.88
2018-09-21T11:47:53.315Z,30.44
2018-09-21T11:52:56.484Z,30.39
2018-09-21T11:57:59.648Z,30.58
2018-09-21T12:03:03.809Z,31.89
2018-09-21T12:08:07.024Z,32.72
2018-09-21T12:13:10.299Z,32.17
2018-09-21T12:18:13.501Z,31.51
2018-09-21T12:23:16.660Z,30.92
2018-09-21T12:28:19.849Z,31.61
2018-09-21T12:33:23.120Z,32.18
2018-09-21T12:38:26.415Z,32.00
2018-09-21T12:43:35.102Z,32.71
2018-09-21T12:48:38.904Z,33.72
2018-09-21T12:53:42.208Z,34.66
2018-09-21T12:58:45.461Z,34.79
2018-09-21T13:03:48.633Z,35.02
2018-09-21T13:08:51.838Z,34.51
2018-09-21T13:13:55.074Z,33.81
2018-09-21T13:18:58.208Z,34.33
2018-09-21T13:24:02.233Z,35.47
2018-09-21T13:29:05.522Z,36.64
2018-09-21T13:34:08.973Z,37.08
2018-09-21T13:39:12.194Z,36.57
2018-09-21T13:44:15.340Z,38.11
2018-09-21T13:49:18.769Z,38.12
2018-09-21T13:54:21.923Z,37.74
2018-09-21T13:59:25.177Z,37.33
2018-09-21T14:04:29.028Z,36.88
2018-09-21T14:09:32.259Z,38.59
2018-09-21T14:20:04.908Z,37.90
2018-09-21T14:25:08.349Z,36.05
2018-09-21T14:30:12.105Z,34.84
2018-09-21T14:35:17.782Z,50.71
2018-09-21T14:40:22.032Z,62.49
2018-09-21T14:45:25.333Z,68.26
2018-09-21T14:50:28.959Z,67.70
2018-09-21T14:55:32.372Z,68.26
2018-09-21T15:00:35.945Z,69.50
2018-09-21T15:05:40.170Z,70.12
2018-09-21T15:10:43.410Z,71.41
2018-09-21T15:15:48.590Z,73.76
2018-09-21T15:20:53.893Z,75.68
2018-09-21T15:25:57.305Z,74.90
2018-09-21T15:31:01.005Z,73.94
2018-09-21T15:36:04.450Z,72.82
2018-09-21T15:41:09.215Z,73.94
2018-09-21T15:46:12.627Z,77.91
2018-09-21T15:51:15.849Z,78.69
2018-09-21T15:56:19.091Z,78.47
2018-09-21T16:01:22.818Z,80.05
2018-09-21T16:06:29.837Z,83.66
2018-09-21T16:11:33.281Z,83.23
2018-09-21T16:16:36.672Z,85.13
2018-09-21T16:21:42.140Z,86.49
2018-09-21T16:26:45.420Z,88.07
2018-09-21T16:31:48.749Z,88.17
2018-09-21T16:36:52.018Z,87.44
2018-09-21T16:41:55.541Z,89.09
2018-09-21T16:46:58.997Z,89.57
2018-09-21T16:52:02.299Z,90.00
2018-09-21T16:57:06.183Z,88.51
2018-09-21T17:02:09.958Z,91.03
2018-09-21T17:07:13.397Z,90.66
2018-09-21T17:12:16.787Z,91.28
2018-09-21T17:17:20.007Z,91.36
2018-09-21T17:22:23.234Z,91.08
2018-09-21T17:27:26.516Z,90.84
2018-09-21T17:32:29.676Z,90.86
2018-09-21T17:37:34.353Z,91.61
2018-09-21T17:42:38.166Z,92.36
2018-09-21T17:47:41.332Z,91.33
2018-09-21T17:52:50.036Z,92.63
2018-09-21T17:57:56.292Z,93.53
2018-09-21T18:03:00.819Z,91.52
2018-09-21T18:08:04.271Z,92.57
2018-09-21T18:18:41.093Z,93.54
2018-09-21T18:23:45.326Z,93.30
2018-09-21T18:28:49.630Z,91.70
2018-09-21T18:33:52.911Z,92.66
2018-09-21T18:38:56.064Z,93.39
2018-09-21T18:43:59.505Z,91.53
2018-09-21T18:49:02.820Z,92.18
2018-09-21T18:54:06.890Z,92.15
2018-09-21T18:59:10.605Z,91.58
2018-09-21T19:04:15.529Z,91.63
2018-09-21T19:09:19.542Z,91.70
2018-09-21T19:14:23.714Z,92.85
2018-09-21T19:19:28.563Z,91.62
2018-09-21T19:24:32.653Z,92.05
2018-09-21T19:30:05.465Z,92.68
2018-09-21T19:35:17.254Z,93.10
2018-09-21T19:40:21.260Z,92.45
2018-09-21T19:45:25.946Z,92.23
2018-09-21T19:50:30.190Z,92.08
2018-09-21T19:55:34.454Z,91.52
2018-09-21T20:00:40.127Z,91.91
2018-09-21T20:05:43.468Z,92.02
2018-09-21T20:11:20.530Z,90.40
2018-09-21T20:16:23.883Z,90.02
2018-09-21T20:21:27.192Z,89.75
2018-09-21T20:26:31.215Z,90.55
2018-09-21T20:31:34.739Z,90.17
2018-09-21T20:36:40.890Z,88.95
2018-09-21T20:41:44.115Z,89.54
2018-09-21T20:46:47.375Z,88.98
2018-09-21T20:51:50.597Z,88.89
2018-09-21T20:56:53.754Z,88.04
2018-09-21T21:01:56.921Z,89.02
2018-09-21T21:07:00.136Z,88.51
2018-09-21T21:12:03.344Z,88.94
2018-09-21T21:17:06.524Z,88.89
2018-09-21T21:22:09.706Z,88.78
2018-09-21T21:27:14.802Z,87.52
2018-09-21T21:32:20.697Z,88.04
2018-09-21T21:37:26.310Z,88.21
2018-09-21T21:42:33.350Z,89.04
2018-09-21T21:47:39.576Z,89.04
2018-09-21T21:52:43.700Z,88.69
2018-09-21T21:57:46.854Z,87.39
2018-09-21T22:02:50.204Z,86.52
2018-09-21T22:07:53.443Z,85.63
2018-09-21T22:12:56.588Z,86.45
2018-09-21T22:17:59.775Z,86.83
2018-09-21T22:23:03.132Z,87.95
2018-09-21T22:28:06.322Z,88.75
2018-09-21T22:33:09.518Z,89.30
2018-09-21T22:38:12.781Z,90.60
2018-09-21T22:43:16.177Z,91.21
2018-09-21T22:48:19.397Z,90.32
2018-09-21T22:53:22.769Z,89.33
2018-09-21T22:58:25.918Z,87.66
2018-09-21T23:03:29.121Z,87.52
2018-09-21T23:08:32.314Z,86.94
2018-09-21T23:13:35.614Z,86.63
2018-09-21T23:18:40.391Z,86.35
2018-09-21T23:23:44.287Z,87.17
2018-09-21T23:28:47.463Z,86.74
2018-09-21T23:33:50.721Z,87.47
2018-09-21T23:38:53.930Z,87.09
2018-09-21T23:43:57.141Z,86.23
2018-09-21T23:49:00.294Z,86.00
2018-09-21T23:54:04.065Z,85.91
2018-09-21T23:59:07.244Z,87.19
